Time;durP1;ratioP1;P1;durP2;ratioP2;P2;SDS_P1;SDS_P2;PMS_P1;PMS_P2;Temp;Humidity;BMP_temperature;BMP_pressure;BME280_temperature;BME280_humidity;BME280_pressure;Samples;Min_cycle;Max_cycle;Signal;HPM_P1;HPM_P2
2022/04/17 00:00:31;;;;;;;;;;;8.50;57.00;;;;;;5088288;28;20338;-69
2022/04/17 00:02:57;;;;;;;;;;;8.40;57.20;;;;;;5088459;28;19938;-69
2022/04/17 00:05:24;;;;;;;;;;;8.40;57.40;;;;;;5094253;28;19947;-69
2022/04/17 00:07:52;;;;;;;;;;;8.30;58.00;;;;;;5088740;28;19993;-69
2022/04/17 00:10:18;;;;;;;;;;;8.30;58.00;;;;;;5088578;28;20031;-69
2022/04/17 00:12:45;;;;;;;;;;;8.30;58.30;;;;;;5089260;28;20431;-69
2022/04/17 00:15:11;;;;;;;;;;;8.30;58.10;;;;;;5078480;28;20019;-69
2022/04/17 00:17:42;;;;;;;;;;;8.30;58.50;;;;;;5072460;28;19957;-69
2022/04/17 00:20:09;;;;;;;;;;;8.30;58.60;;;;;;5085011;28;19942;-69
2022/04/17 00:22:36;;;;;;;;;;;8.20;58.80;;;;;;5088214;28;19951;-69
2022/04/17 00:25:04;;;;;;;;;;;8.20;58.80;;;;;;5089467;28;20374;-69
2022/04/17 00:27:31;;;;;;;;;;;8.20;59.20;;;;;;5075574;28;20288;-68
2022/04/17 00:29:57;;;;;;;;;;;8.10;59.40;;;;;;5088993;28;20036;-68
2022/04/17 00:32:24;;;;;;;;;;;8.10;59.50;;;;;;5089353;28;19939;-69
2022/04/17 00:34:50;;;;;;;;;;;8.10;59.80;;;;;;5099779;28;19956;-69
2022/04/17 00:37:17;;;;;;;;;;;8.00;59.90;;;;;;5085432;28;20339;-72
2022/04/17 00:39:43;;;;;;;;;;;8.00;60.30;;;;;;5089574;28;20398;-69
2022/04/17 00:42:11;;;;;;;;;;;7.90;60.10;;;;;;5087999;28;19948;-70
2022/04/17 00:44:38;;;;;;;;;;;7.90;60.60;;;;;;5077892;28;19939;-69
2022/04/17 00:47:05;;;;;;;;;;;7.90;60.70;;;;;;5082287;28;19964;-69
2022/04/17 00:49:31;;;;;;;;;;;7.90;61.40;;;;;;5108384;22;20455;-68
2022/04/17 00:51:58;;;;;;;;;;;7.90;61.70;;;;;;5082740;28;19961;-68
2022/04/17 00:54:25;;;;;;;;;;;7.80;61.90;;;;;;5087524;28;20026;-68
2022/04/17 00:56:52;;;;;;;;;;;7.80;62.20;;;;;;5077027;28;19987;-69
2022/04/17 00:59:21;;;;;;;;;;;7.70;62.50;;;;;;5077598;28;20465;-71
2022/04/17 01:01:47;;;;;;;;;;;7.70;62.70;;;;;;5087577;28;19950;-69
2022/04/17 01:04:14;;;;;;;;;;;7.70;62.90;;;;;;5082532;28;19986;-69
2022/04/17 01:06:41;;;;;;;;;;;7.60;63.30;;;;;;5093028;28;20040;-69
2022/04/17 01:09:07;;;;;;;;;;;7.60;63.40;;;;;;5087250;28;19962;-68
2022/04/17 01:11:38;;;;;;;;;;;7.50;64.20;;;;;;5072785;28;19949;-69
2022/04/17 01:14:05;;;;;;;;;;;7.40;63.90;;;;;;5076456;28;20020;-68
2022/04/17 01:16:33;;;;;;;;;;;7.40;64.60;;;;;;5079871;28;19958;-69
2022/04/17 01:19:02;;;;;;;;;;;7.40;64.50;;;;;;5075173;28;20454;-68
2022/04/17 01:21:30;;;;;;;;;;;7.40;64.60;;;;;;5088817;28;19949;-68
2022/04/17 01:26:57;;;;;;;;;;;7.40;64.90;;;;;;5046369;28;19985;-68
2022/04/17 01:29:24;;;;;;;;;;;7.40;65.20;;;;;;5085201;28;19961;-68
2022/04/17 01:31:50;;;;;;;;;;;7.30;65.90;;;;;;5083211;28;19951;-68
2022/04/17 01:34:17;;;;;;;;;;;7.30;65.90;;;;;;5087690;28;19939;-68
2022/04/17 01:36:45;;;;;;;;;;;7.30;66.30;;;;;;5084000;28;19965;-68
2022/04/17 01:39:12;;;;;;;;;;;7.20;66.50;;;;;;5069541;28;19961;-70
2022/04/17 01:41:39;;;;;;;;;;;7.20;66.70;;;;;;5080285;28;20467;-70
2022/04/17 01:44:05;;;;;;;;;;;7.20;67.00;;;;;;5089662;28;20000;-69
2022/04/17 01:46:33;;;;;;;;;;;7.20;67.40;;;;;;5078142;28;19997;-69
2022/04/17 01:48:59;;;;;;;;;;;7.10;67.60;;;;;;5078562;28;20017;-69
2022/04/17 01:51:26;;;;;;;;;;;7.10;68.10;;;;;;5085516;28;19947;-68
2022/04/17 01:53:52;;;;;;;;;;;;;;;;;;5079536;28;20524;-68
2022/04/17 01:56:20;;;;;;;;;;;7.00;69.00;;;;;;5085893;28;20514;-69
2022/04/17 01:58:47;;;;;;;;;;;7.00;70.70;;;;;;5088203;28;19992;-69
2022/04/17 02:01:14;;;;;;;;;;;6.90;70.00;;;;;;5081149;28;19995;-69
2022/04/17 02:03:41;;;;;;;;;;;6.90;69.80;;;;;;5078832;28;19952;-69
2022/04/17 02:06:07;;;;;;;;;;;6.80;69.80;;;;;;5084940;28;20030;-69
2022/04/17 02:08:34;;;;;;;;;;;6.80;70.10;;;;;;5088895;28;19967;-69
2022/04/17 02:11:00;;;;;;;;;;;6.80;70.40;;;;;;5088573;28;19944;-69
2022/04/17 02:13:29;;;;;;;;;;;6.70;70.80;;;;;;5075876;28;19943;-69
2022/04/17 02:15:56;;;;;;;;;;;6.80;71.30;;;;;;5076262;28;19979;-69
2022/04/17 02:18:24;;;;;;;;;;;6.70;71.80;;;;;;5086550;28;20011;-69
2022/04/17 02:20:50;;;;;;;;;;;6.60;72.60;;;;;;5082560;28;20381;-69
2022/04/17 02:23:17;;;;;;;;;;;6.60;72.60;;;;;;5086703;28;20013;-69
2022/04/17 02:25:43;;;;;;;;;;;6.60;72.90;;;;;;5080233;28;19943;-69
2022/04/17 02:28:10;;;;;;;;;;;6.60;72.60;;;;;;5086466;28;19967;-70
2022/04/17 02:30:38;;;;;;;;;;;6.50;73.30;;;;;;5091896;28;20004;-69
2022/04/17 02:33:05;;;;;;;;;;;6.50;73.20;;;;;;5080011;28;19946;-70
2022/04/17 02:35:31;;;;;;;;;;;6.40;73.60;;;;;;5087627;28;20047;-68
2022/04/17 02:37:58;;;;;;;;;;;6.40;74.80;;;;;;5090074;28;19961;-68
2022/04/17 02:40:24;;;;;;;;;;;6.40;74.70;;;;;;5097277;28;19946;-69
2022/04/17 02:42:53;;;;;;;;;;;6.40;75.60;;;;;;5080779;28;20430;-69
2022/04/17 02:45:19;;;;;;;;;;;6.30;76.00;;;;;;5076849;28;20406;-70
2022/04/17 02:47:50;;;;;;;;;;;6.30;76.90;;;;;;5087958;28;19945;-68
2022/04/17 02:50:18;;;;;;;;;;;6.30;77.80;;;;;;5098729;28;19943;-68
2022/04/17 02:52:45;;;;;;;;;;;6.30;79.00;;;;;;5094900;28;20428;-68
2022/04/17 02:55:11;;;;;;;;;;;6.30;79.10;;;;;;5082673;28;20318;-69
2022/04/17 02:57:38;;;;;;;;;;;6.30;78.40;;;;;;5087722;28;19950;-69
2022/04/17 03:00:05;;;;;;;;;;;6.30;79.40;;;;;;5079530;28;19941;-68
2022/04/17 03:08:02;;;;;;;;;;;6.20;82.00;;;;;;5083337;28;20380;-68
2022/04/17 03:10:28;;;;;;;;;;;6.20;81.20;;;;;;5088476;28;19996;-69
2022/04/17 03:12:54;;;;;;;;;;;6.20;81.00;;;;;;5086861;28;20398;-69
2022/04/17 03:15:21;;;;;;;;;;;6.20;81.10;;;;;;5089175;28;19997;-70
2022/04/17 03:17:48;;;;;;;;;;;6.30;81.20;;;;;;5085255;28;19994;-68
2022/04/17 03:20:14;;;;;;;;;;;6.20;82.00;;;;;;5085387;28;19946;-70
2022/04/17 03:22:42;;;;;;;;;;;6.20;83.00;;;;;;5099475;28;19950;-69
2022/04/17 03:25:09;;;;;;;;;;;6.20;82.00;;;;;;5089592;28;19967;-68
2022/04/17 03:27:36;;;;;;;;;;;6.10;81.70;;;;;;5073408;28;19968;-69
2022/04/17 03:30:03;;;;;;;;;;;6.10;82.60;;;;;;5085961;28;19947;-70
2022/04/17 03:32:29;;;;;;;;;;;6.00;82.70;;;;;;5075349;28;20381;-68
2022/04/17 03:34:56;;;;;;;;;;;6.00;83.70;;;;;;5084833;28;20024;-68
2022/04/17 03:37:22;;;;;;;;;;;6.00;87.20;;;;;;5092164;28;20082;-68
2022/04/17 03:39:51;;;;;;;;;;;5.90;90.20;;;;;;5076410;28;19970;-69
2022/04/17 03:42:18;;;;;;;;;;;5.90;91.70;;;;;;5093006;28;20420;-69
2022/04/17 03:44:46;;;;;;;;;;;5.90;92.70;;;;;;5091336;28;19983;-69
2022/04/17 03:47:13;;;;;;;;;;;5.80;92.90;;;;;;5075369;28;19955;-68
2022/04/17 03:49:39;;;;;;;;;;;5.90;94.10;;;;;;5083337;28;20468;-69
2022/04/17 03:52:06;;;;;;;;;;;5.90;93.70;;;;;;5098228;28;20000;-68
2022/04/17 03:54:33;;;;;;;;;;;5.90;93.40;;;;;;5090612;28;20519;-68
2022/04/17 03:57:01;;;;;;;;;;;5.90;93.80;;;;;;5078455;28;19968;-69
2022/04/17 03:59:27;;;;;;;;;;;5.90;94.10;;;;;;5087089;28;19965;-68
2022/04/17 04:01:54;;;;;;;;;;;5.90;93.40;;;;;;5087228;28;19945;-69
2022/04/17 04:04:20;;;;;;;;;;;5.90;93.50;;;;;;5084913;28;19942;-69
2022/04/17 04:06:47;;;;;;;;;;;5.90;94.20;;;;;;5078939;28;20348;-68
2022/04/17 04:09:13;;;;;;;;;;;5.80;95.40;;;;;;5082592;28;19974;-70
2022/04/17 04:11:40;;;;;;;;;;;5.80;97.00;;;;;;5084317;28;19955;-68
2022/04/17 04:14:08;;;;;;;;;;;5.70;97.80;;;;;;5086021;28;19991;-69
2022/04/17 04:16:34;;;;;;;;;;;5.80;98.60;;;;;;5073729;28;20020;-69
2022/04/17 04:19:02;;;;;;;;;;;5.80;98.80;;;;;;5091480;28;19969;-69
2022/04/17 04:21:28;;;;;;;;;;;5.80;98.80;;;;;;5083318;28;19958;-70
2022/04/17 04:23:56;;;;;;;;;;;5.80;99.40;;;;;;5077579;28;19947;-69
2022/04/17 04:26:22;;;;;;;;;;;5.70;99.10;;;;;;5091369;28;19949;-69
2022/04/17 04:28:48;;;;;;;;;;;5.70;99.80;;;;;;5089453;28;20488;-70
2022/04/17 04:31:16;;;;;;;;;;;5.70;99.90;;;;;;5084086;28;19939;-70
2022/04/17 04:33:43;;;;;;;;;;;5.70;99.90;;;;;;5085569;28;20298;-70
2022/04/17 04:36:10;;;;;;;;;;;5.60;99.90;;;;;;5090178;28;19964;-69
2022/04/17 04:38:37;;;;;;;;;;;5.60;99.90;;;;;;5098190;28;19960;-69
2022/04/17 04:41:04;;;;;;;;;;;5.60;99.90;;;;;;5080725;28;20520;-69
2022/04/17 04:43:31;;;;;;;;;;;5.60;99.90;;;;;;5089971;28;19998;-69
2022/04/17 04:46:09;;;;;;;;;;;5.60;99.90;;;;;;5089879;28;20449;-68
2022/04/17 04:51:22;;;;;;;;;;;5.70;99.90;;;;;;5084957;28;19967;-70
2022/04/17 04:53:49;;;;;;;;;;;5.70;99.90;;;;;;5081621;28;19946;-68
2022/04/17 04:56:16;;;;;;;;;;;5.70;99.90;;;;;;5098986;28;19958;-69
2022/04/17 04:58:43;;;;;;;;;;;5.70;99.90;;;;;;5090524;28;19963;-69
2022/04/17 05:01:10;;;;;;;;;;;5.70;99.90;;;;;;5094928;28;20033;-69
2022/04/17 05:03:38;;;;;;;;;;;5.70;99.90;;;;;;5083093;28;19959;-70
2022/04/17 05:06:04;;;;;;;;;;;5.80;99.90;;;;;;5081583;28;19947;-69
2022/04/17 05:08:31;;;;;;;;;;;5.80;99.90;;;;;;5077816;28;19973;-69
2022/04/17 05:10:57;;;;;;;;;;;5.80;99.90;;;;;;5087416;28;19941;-69
2022/04/17 05:13:24;;;;;;;;;;;5.80;99.90;;;;;;5090437;28;20528;-69
2022/04/17 05:15:50;;;;;;;;;;;5.80;99.90;;;;;;5089140;28;19958;-69
2022/04/17 05:18:17;;;;;;;;;;;5.80;99.90;;;;;;5089736;28;19963;-69
2022/04/17 05:20:45;;;;;;;;;;;5.90;99.90;;;;;;5086470;28;19996;-69
2022/04/17 05:23:19;;;;;;;;;;;5.90;99.90;;;;;;5069886;28;19953;-69
2022/04/17 05:25:47;;;;;;;;;;;5.90;99.90;;;;;;5093711;28;20316;-69
2022/04/17 05:28:13;;;;;;;;;;;6.00;99.90;;;;;;5095887;28;19958;-69
2022/04/17 05:30:40;;;;;;;;;;;6.00;99.90;;;;;;5089824;28;19941;-69
2022/04/17 05:33:06;;;;;;;;;;;6.00;99.90;;;;;;5080792;28;19951;-69
2022/04/17 05:35:33;;;;;;;;;;;6.00;99.90;;;;;;5085500;28;19946;-70
2022/04/17 05:38:01;;;;;;;;;;;6.00;99.90;;;;;;5081268;28;20359;-69
2022/04/17 05:40:28;;;;;;;;;;;6.00;99.90;;;;;;5097819;28;19967;-70
2022/04/17 05:42:55;;;;;;;;;;;6.00;99.90;;;;;;5096231;28;19943;-70
2022/04/17 05:45:22;;;;;;;;;;;6.00;99.90;;;;;;5100018;28;19946;-69
2022/04/17 05:47:48;;;;;;;;;;;6.00;99.90;;;;;;5089780;28;19942;-68
2022/04/17 05:50:15;;;;;;;;;;;6.00;99.90;;;;;;5090208;28;20013;-69
2022/04/17 05:52:42;;;;;;;;;;;6.10;99.90;;;;;;5103015;28;19951;-69
2022/04/17 05:55:11;;;;;;;;;;;6.10;99.90;;;;;;5091905;28;20368;-68
2022/04/17 05:57:37;;;;;;;;;;;6.10;99.90;;;;;;5089170;28;19961;-68
2022/04/17 06:00:08;;;;;;;;;;;6.10;99.90;;;;;;5076629;28;19952;-68
2022/04/17 06:02:35;;;;;;;;;;;6.10;99.90;;;;;;5088720;28;19975;-69
2022/04/17 06:05:02;;;;;;;;;;;6.20;99.90;;;;;;5084911;28;19947;-68
2022/04/17 06:07:28;;;;;;;;;;;6.20;99.90;;;;;;5087803;28;19946;-68
2022/04/17 06:09:55;;;;;;;;;;;6.30;99.90;;;;;;5075096;28;19957;-69
2022/04/17 06:12:23;;;;;;;;;;;6.30;99.90;;;;;;5076951;28;19973;-69
2022/04/17 06:14:49;;;;;;;;;;;6.30;99.90;;;;;;5080637;28;19948;-69
2022/04/17 06:17:16;;;;;;;;;;;6.40;99.90;;;;;;5088349;28;19960;-69
2022/04/17 06:19:43;;;;;;;;;;;6.40;99.90;;;;;;5082621;28;19966;-72
2022/04/17 06:22:10;;;;;;;;;;;6.40;99.90;;;;;;5084373;28;19983;-68
2022/04/17 06:24:37;;;;;;;;;;;6.50;99.90;;;;;;5084067;28;19952;-69
2022/04/17 06:27:03;;;;;;;;;;;6.50;99.90;;;;;;5100820;28;19952;-70
2022/04/17 06:29:31;;;;;;;;;;;6.60;99.90;;;;;;5086569;28;19959;-71
2022/04/17 06:31:58;;;;;;;;;;;6.70;99.90;;;;;;5079408;28;20525;-71
2022/04/17 06:34:25;;;;;;;;;;;6.80;99.90;;;;;;5081142;28;19945;-71
2022/04/17 06:36:51;;;;;;;;;;;7.00;99.90;;;;;;5093741;28;20428;-71
2022/04/17 06:39:17;;;;;;;;;;;7.10;99.90;;;;;;5094763;28;19960;-71
2022/04/17 06:41:45;;;;;;;;;;;7.10;99.90;;;;;;5082405;28;20002;-71
2022/04/17 06:44:11;;;;;;;;;;;7.20;99.90;;;;;;5087186;28;19942;-71
2022/04/17 06:46:39;;;;;;;;;;;7.40;99.90;;;;;;5088625;28;20016;-70
2022/04/17 06:49:07;;;;;;;;;;;7.50;99.90;;;;;;5089769;28;19983;-71
2022/04/17 06:51:34;;;;;;;;;;;7.60;99.90;;;;;;5086172;28;19956;-75
2022/04/17 06:54:00;;;;;;;;;;;7.70;99.90;;;;;;5082752;28;19943;-71
2022/04/17 06:56:27;;;;;;;;;;;7.80;99.90;;;;;;5082526;28;19981;-72
2022/04/17 06:58:53;;;;;;;;;;;7.90;99.90;;;;;;5082582;28;20382;-71
2022/04/17 07:01:20;;;;;;;;;;;8.00;99.90;;;;;;5083798;28;19948;-71
2022/04/17 07:03:48;;;;;;;;;;;8.00;99.90;;;;;;5081175;28;19960;-72
2022/04/17 07:06:15;;;;;;;;;;;8.10;99.90;;;;;;5084153;28;19956;-72
2022/04/17 07:08:41;;;;;;;;;;;8.20;99.90;;;;;;5083201;28;19965;-71
2022/04/17 07:11:08;;;;;;;;;;;8.40;99.90;;;;;;5084428;28;19998;-71
2022/04/17 07:13:34;;;;;;;;;;;8.60;99.90;;;;;;5079251;28;19956;-71
2022/04/17 07:16:01;;;;;;;;;;;8.70;99.90;;;;;;5087050;28;19953;-70
2022/04/17 07:18:27;;;;;;;;;;;8.80;99.70;;;;;;5077335;28;20005;-70
2022/04/17 07:20:55;;;;;;;;;;;8.80;99.40;;;;;;5079662;28;20008;-70
2022/04/17 07:23:22;;;;;;;;;;;8.90;98.80;;;;;;5085786;28;19945;-70
2022/04/17 07:25:49;;;;;;;;;;;9.10;98.90;;;;;;5088643;28;19948;-71
2022/04/17 07:28:16;;;;;;;;;;;9.20;98.30;;;;;;5092679;28;20018;-71
2022/04/17 07:30:43;;;;;;;;;;;9.30;97.80;;;;;;5086912;28;20354;-71
2022/04/17 07:33:09;;;;;;;;;;;9.50;97.70;;;;;;5101022;28;19948;-71
2022/04/17 07:35:36;;;;;;;;;;;9.60;97.40;;;;;;5099324;28;20434;-71
2022/04/17 07:38:05;;;;;;;;;;;9.70;97.00;;;;;;5086873;28;20014;-71
2022/04/17 07:40:32;;;;;;;;;;;9.80;96.90;;;;;;5083542;28;19989;-71
2022/04/17 07:43:00;;;;;;;;;;;9.90;96.50;;;;;;5090096;28;19945;-69
2022/04/17 07:45:27;;;;;;;;;;;10.00;96.00;;;;;;5081826;28;19942;-69
2022/04/17 07:47:54;;;;;;;;;;;10.20;95.80;;;;;;5089054;28;19972;-70
2022/04/17 07:50:23;;;;;;;;;;;10.30;95.40;;;;;;5089649;28;20021;-70
2022/04/17 07:52:50;;;;;;;;;;;10.40;95.10;;;;;;5086542;28;20460;-70
2022/04/17 07:55:18;;;;;;;;;;;10.50;94.50;;;;;;5089446;28;19954;-71
2022/04/17 07:58:01;;;;;;;;;;;10.60;94.30;;;;;;5076969;28;20006;-75
2022/04/17 08:00:31;;;;;;;;;;;10.70;93.90;;;;;;5085751;28;19990;-72
2022/04/17 08:03:06;;;;;;;;;;;10.90;93.40;;;;;;5082067;28;19992;-75
2022/04/17 08:05:35;;;;;;;;;;;11.10;92.70;;;;;;5087325;28;20365;-73
2022/04/17 08:08:01;;;;;;;;;;;11.30;92.90;;;;;;5088543;28;19974;-73
2022/04/17 08:10:29;;;;;;;;;;;11.40;92.50;;;;;;5077018;28;19945;-76
2022/04/17 08:12:56;;;;;;;;;;;11.50;92.10;;;;;;5083193;28;19951;-75
2022/04/17 08:15:22;;;;;;;;;;;11.50;91.90;;;;;;5078763;28;19943;-75
2022/04/17 08:17:49;;;;;;;;;;;11.60;92.30;;;;;;5084548;28;20022;-75
2022/04/17 08:20:15;;;;;;;;;;;11.70;91.60;;;;;;5090046;28;19992;-75
2022/04/17 08:22:42;;;;;;;;;;;11.80;91.40;;;;;;5085787;28;20335;-75
2022/04/17 08:25:08;;;;;;;;;;;11.90;91.50;;;;;;5074728;28;19946;-75
2022/04/17 08:27:44;;;;;;;;;;;12.00;91.90;;;;;;5088483;28;19952;-75
2022/04/17 08:30:10;;;;;;;;;;;12.10;91.30;;;;;;5086060;28;19952;-75
2022/04/17 08:32:37;;;;;;;;;;;12.30;91.30;;;;;;5081462;28;19957;-73
2022/04/17 08:35:05;;;;;;;;;;;12.50;91.20;;;;;;5075958;28;19952;-75
2022/04/17 08:37:31;;;;;;;;;;;12.60;91.20;;;;;;5075473;28;20043;-75
2022/04/17 08:39:58;;;;;;;;;;;12.80;90.60;;;;;;5070880;28;19949;-74
2022/04/17 08:42:26;;;;;;;;;;;12.90;90.60;;;;;;5084032;28;20086;-75
2022/04/17 08:44:54;;;;;;;;;;;13.00;90.10;;;;;;5073847;28;20047;-74
2022/04/17 08:47:20;;;;;;;;;;;13.10;90.30;;;;;;5083799;28;19997;-75
2022/04/17 08:49:48;;;;;;;;;;;13.30;90.00;;;;;;5070204;28;19975;-75
2022/04/17 08:52:16;;;;;;;;;;;13.50;90.10;;;;;;5085801;28;20023;-74
2022/04/17 08:54:43;;;;;;;;;;;13.70;88.20;;;;;;5083864;28;20013;-75
2022/04/17 08:57:10;;;;;;;;;;;13.80;87.90;;;;;;5078734;28;20339;-74
2022/04/17 08:59:36;;;;;;;;;;;13.90;87.60;;;;;;5075232;28;20036;-75
2022/04/17 09:02:10;;;;;;;;;;;14.20;86.70;;;;;;5081813;28;19955;-74
2022/04/17 09:04:36;;;;;;;;;;;14.50;86.70;;;;;;5104759;28;20058;-75
2022/04/17 09:07:05;;;;;;;;;;;14.60;85.50;;;;;;5089471;28;19946;-75
2022/04/17 09:09:31;;;;;;;;;;;14.70;84.30;;;;;;5087054;28;19967;-75
2022/04/17 09:11:58;;;;;;;;;;;14.80;82.90;;;;;;5088658;28;20412;-74
2022/04/17 09:14:24;;;;;;;;;;;14.80;82.60;;;;;;5075680;28;19999;-74
2022/04/17 09:16:51;;;;;;;;;;;14.90;82.20;;;;;;5083176;28;20035;-75
2022/04/17 09:19:19;;;;;;;;;;;15.00;80.40;;;;;;5083454;28;20041;-74
2022/04/17 09:21:46;;;;;;;;;;;15.00;81.00;;;;;;5080268;28;19953;-74
2022/04/17 09:24:14;;;;;;;;;;;15.00;80.20;;;;;;5089139;28;20002;-74
2022/04/17 09:26:47;;;;;;;;;;;15.10;80.20;;;;;;5090951;28;19948;-74
2022/04/17 09:29:17;;;;;;;;;;;15.20;80.40;;;;;;5076504;28;19960;-74
2022/04/17 09:31:43;;;;;;;;;;;15.50;80.20;;;;;;5077901;28;19943;-74
2022/04/17 09:34:10;;;;;;;;;;;15.80;78.80;;;;;;5076097;28;19953;-74
2022/04/17 09:36:38;;;;;;;;;;;16.00;77.40;;;;;;5081217;28;20535;-72
2022/04/17 09:39:11;;;;;;;;;;;16.00;76.50;;;;;;5078186;28;19976;-72
2022/04/17 09:41:51;;;;;;;;;;;16.10;76.30;;;;;;5089416;28;19956;-74
2022/04/17 09:44:33;;;;;;;;;;;16.30;73.90;;;;;;5069695;28;19994;-73
2022/04/17 09:47:00;;;;;;;;;;;16.20;74.40;;;;;;5083913;28;19950;-73
2022/04/17 09:49:27;;;;;;;;;;;16.20;73.00;;;;;;5078176;28;19971;-71
2022/04/17 09:52:07;;;;;;;;;;;16.30;73.00;;;;;;5084746;28;19941;-73
2022/04/17 09:54:33;;;;;;;;;;;16.40;72.50;;;;;;5069268;28;20454;-72
2022/04/17 09:57:00;;;;;;;;;;;16.40;72.40;;;;;;5077142;28;19953;-72
2022/04/17 09:59:27;;;;;;;;;;;16.30;70.50;;;;;;5068821;28;19975;-72
2022/04/17 10:01:55;;;;;;;;;;;16.40;70.10;;;;;;5075163;28;20336;-72
2022/04/17 10:04:24;;;;;;;;;;;16.70;70.20;;;;;;5080656;28;19945;-72
2022/04/17 10:06:51;;;;;;;;;;;16.70;69.40;;;;;;5088927;28;19956;-72
2022/04/17 10:09:21;;;;;;;;;;;16.70;68.40;;;;;;5087022;28;21417;-72
2022/04/17 10:11:49;;;;;;;;;;;16.90;68.10;;;;;;5081980;28;19947;-72
2022/04/17 10:14:15;;;;;;;;;;;16.90;68.10;;;;;;5102704;28;20707;-72
2022/04/17 10:16:42;;;;;;;;;;;16.90;67.90;;;;;;5080700;28;19950;-72
2022/04/17 10:19:12;;;;;;;;;;;17.10;68.90;;;;;;5083536;28;19991;-72
2022/04/17 10:21:39;;;;;;;;;;;17.10;67.80;;;;;;5079209;28;19954;-73
2022/04/17 10:24:06;;;;;;;;;;;17.20;66.70;;;;;;5092376;28;19940;-73
2022/04/17 10:26:41;;;;;;;;;;;17.30;67.30;;;;;;5092155;28;19950;-73
2022/04/17 10:29:10;;;;;;;;;;;17.40;67.50;;;;;;5096583;28;19965;-73
2022/04/17 10:31:43;;;;;;;;;;;17.40;68.20;;;;;;5078842;28;20002;-73
2022/04/17 10:34:27;;;;;;;;;;;17.70;68.40;;;;;;5075908;28;19936;-73
2022/04/17 10:37:11;;;;;;;;;;;18.00;68.20;;;;;;5102732;28;20425;-73
2022/04/17 10:39:41;;;;;;;;;;;18.10;67.20;;;;;;5075306;28;19970;-72
2022/04/17 10:42:09;;;;;;;;;;;18.00;67.90;;;;;;5078024;28;19948;-72
2022/04/17 10:44:38;;;;;;;;;;;17.90;68.10;;;;;;5089106;28;19949;-75
2022/04/17 10:47:05;;;;;;;;;;;18.10;68.20;;;;;;5068923;28;19956;-72
2022/04/17 10:49:32;;;;;;;;;;;18.00;67.50;;;;;;5112532;22;19963;-77
2022/04/17 10:51:59;;;;;;;;;;;18.20;68.00;;;;;;5081569;28;20056;-76
2022/04/17 10:54:26;;;;;;;;;;;18.30;66.90;;;;;;5078864;28;19952;-75
2022/04/17 10:56:59;;;;;;;;;;;18.30;65.90;;;;;;5078990;28;20369;-76
2022/04/17 10:59:29;;;;;;;;;;;18.40;65.50;;;;;;5091282;28;20021;-77
2022/04/17 11:02:00;;;;;;;;;;;18.60;67.30;;;;;;5089058;28;20764;-76
2022/04/17 11:04:27;;;;;;;;;;;18.70;65.80;;;;;;5089753;28;20017;-75
2022/04/17 11:06:56;;;;;;;;;;;18.70;65.60;;;;;;5087057;28;19975;-76
2022/04/17 11:09:23;;;;;;;;;;;18.90;65.60;;;;;;5093312;28;19983;-76
2022/04/17 11:11:50;;;;;;;;;;;19.10;65.90;;;;;;5087838;28;19963;-75
2022/04/17 11:14:19;;;;;;;;;;;19.30;65.30;;;;;;5094353;28;19962;-75
2022/04/17 11:16:49;;;;;;;;;;;19.60;64.50;;;;;;5102006;28;20033;-76
2022/04/17 11:19:16;;;;;;;;;;;19.70;64.50;;;;;;5094861;28;20325;-74
2022/04/17 11:21:43;;;;;;;;;;;19.70;63.80;;;;;;5088523;28;19951;-76
2022/04/17 11:24:10;;;;;;;;;;;19.90;63.10;;;;;;5095110;28;19956;-76
2022/04/17 11:26:55;;;;;;;;;;;20.10;62.70;;;;;;5094248;28;19953;-77
2022/04/17 11:29:33;;;;;;;;;;;20.30;62.90;;;;;;5094781;28;19960;-77
2022/04/17 11:32:01;;;;;;;;;;;21.10;62.70;;;;;;5100589;28;20035;-76
2022/04/17 11:34:41;;;;;;;;;;;21.80;61.50;;;;;;5092647;28;19943;-77
2022/04/17 11:37:07;;;;;;;;;;;22.50;60.70;;;;;;5086394;28;20367;-78
2022/04/17 11:39:34;;;;;;;;;;;23.40;60.30;;;;;;5086129;28;20063;-75
2022/04/17 11:42:01;;;;;;;;;;;23.80;57.80;;;;;;5086899;28;20038;-75
2022/04/17 11:44:27;;;;;;;;;;;24.00;56.80;;;;;;5089895;28;20352;-75
2022/04/17 11:46:54;;;;;;;;;;;24.80;57.80;;;;;;5083493;28;19974;-76
2022/04/17 11:49:22;;;;;;;;;;;25.10;55.60;;;;;;5085332;28;20049;-77
2022/04/17 11:51:48;;;;;;;;;;;25.00;54.50;;;;;;5077759;28;19953;-78
2022/04/17 11:54:29;;;;;;;;;;;26.30;55.00;;;;;;5082750;28;19946;-77
2022/04/17 11:56:56;;;;;;;;;;;27.20;52.50;;;;;;5090411;28;19973;-77
2022/04/17 11:59:23;;;;;;;;;;;27.40;51.20;;;;;;5083656;28;19976;-77
2022/04/17 12:02:05;;;;;;;;;;;27.20;49.50;;;;;;5077532;28;20009;-77
2022/04/17 12:04:33;;;;;;;;;;;27.40;49.30;;;;;;5073604;28;19977;-76
2022/04/17 12:06:59;;;;;;;;;;;27.90;48.00;;;;;;5092645;28;20020;-75
2022/04/17 12:09:26;;;;;;;;;;;28.40;47.10;;;;;;5078981;28;19970;-76
2022/04/17 12:11:52;;;;;;;;;;;29.40;46.10;;;;;;5070880;28;19949;-75
2022/04/17 12:14:27;;;;;;;;;;;29.50;44.60;;;;;;5069938;28;20088;-77
2022/04/17 12:16:53;;;;;;;;;;;30.10;45.00;;;;;;5083014;28;20055;-75
2022/04/17 12:19:20;;;;;;;;;;;30.20;44.20;;;;;;5083654;28;19979;-75
2022/04/17 12:21:48;;;;;;;;;;;30.70;43.50;;;;;;5083021;28;20047;-76
2022/04/17 12:24:15;;;;;;;;;;;31.30;43.20;;;;;;5075608;28;20736;-76
2022/04/17 12:26:41;;;;;;;;;;;30.90;41.80;;;;;;5095433;28;20051;-77
2022/04/17 12:29:08;;;;;;;;;;;30.60;41.90;;;;;;5086437;28;20041;-76
2022/04/17 12:31:35;;;;;;;;;;;31.30;41.80;;;;;;5081646;28;20605;-78
2022/04/17 12:34:08;;;;;;;;;;;32.30;40.50;;;;;;5068218;28;19995;-74
2022/04/17 12:36:37;;;;;;;;;;;32.80;40.50;;;;;;5069754;28;20049;-76
2022/04/17 12:39:05;;;;;;;;;;;33.10;39.30;;;;;;5087868;28;20070;-75
2022/04/17 12:41:38;;;;;;;;;;;33.10;38.70;;;;;;5075030;28;19956;-76
2022/04/17 12:44:04;;;;;;;;;;;31.90;38.90;;;;;;5079938;28;19957;-76
2022/04/17 12:46:32;;;;;;;;;;;31.30;38.40;;;;;;5075277;28;20393;-75
2022/04/17 12:49:05;;;;;;;;;;;31.60;38.40;;;;;;5078533;28;20063;-76
2022/04/17 12:51:32;;;;;;;;;;;31.90;38.20;;;;;;5096021;28;19944;-76
2022/04/17 12:53:58;;;;;;;;;;;32.20;38.30;;;;;;5098831;28;19959;-75
2022/04/17 12:56:27;;;;;;;;;;;32.60;37.50;;;;;;5072201;28;19946;-76
2022/04/17 12:58:55;;;;;;;;;;;32.70;36.70;;;;;;5079926;28;20277;-75
2022/04/17 13:01:22;;;;;;;;;;;30.70;36.50;;;;;;5083311;28;20408;-76
2022/04/17 13:03:49;;;;;;;;;;;29.60;37.30;;;;;;5076600;28;19952;-74
2022/04/17 13:06:19;;;;;;;;;;;29.10;38.20;;;;;;5082672;28;20450;-75
2022/04/17 13:09:01;;;;;;;;;;;29.60;38.40;;;;;;5087690;28;20035;-75
2022/04/17 13:11:33;;;;;;;;;;;30.50;37.60;;;;;;5066814;28;19960;-75
2022/04/17 13:14:02;;;;;;;;;;;29.90;37.20;;;;;;5082109;28;20321;-75
2022/04/17 13:16:29;;;;;;;;;;;30.20;37.70;;;;;;5083109;28;20040;-75
2022/04/17 13:18:55;;;;;;;;;;;31.30;37.10;;;;;;5087667;28;20379;-75
2022/04/17 13:21:22;;;;;;;;;;;31.80;36.30;;;;;;5086058;28;20526;-75
2022/04/17 13:23:49;;;;;;;;;;;31.60;35.30;;;;;;5069774;28;19950;-74
2022/04/17 13:26:17;;;;;;;;;;;31.10;35.30;;;;;;5078719;28;20035;-75
2022/04/17 13:28:45;;;;;;;;;;;30.60;34.50;;;;;;5102628;28;20412;-75
2022/04/17 13:31:11;;;;;;;;;;;30.90;34.90;;;;;;5094452;28;19941;-75
2022/04/17 13:33:38;;;;;;;;;;;30.40;35.20;;;;;;5089905;28;19943;-74
2022/04/17 13:36:05;;;;;;;;;;;30.70;36.10;;;;;;5087642;28;20089;-75
2022/04/17 13:38:31;;;;;;;;;;;30.90;35.90;;;;;;5091145;28;20042;-75
2022/04/17 13:40:58;;;;;;;;;;;31.80;35.80;;;;;;5083681;28;20049;-76
2022/04/17 13:43:25;;;;;;;;;;;31.80;34.20;;;;;;5066909;28;20038;-75
2022/04/17 13:45:53;;;;;;;;;;;31.00;34.60;;;;;;5078573;28;19943;-75
2022/04/17 13:48:19;;;;;;;;;;;30.90;34.80;;;;;;5080945;28;19965;-76
2022/04/17 13:50:46;;;;;;;;;;;32.50;35.00;;;;;;5066388;28;19951;-75
2022/04/17 13:53:12;;;;;;;;;;;33.30;34.30;;;;;;5074494;28;20009;-75
2022/04/17 13:55:39;;;;;;;;;;;33.50;33.90;;;;;;5066579;28;19974;-76
2022/04/17 13:58:05;;;;;;;;;;;33.10;34.50;;;;;;5080712;28;19963;-76
2022/04/17 14:00:32;;;;;;;;;;;32.80;33.20;;;;;;5079503;28;19952;-76
2022/04/17 14:03:00;;;;;;;;;;;33.30;33.00;;;;;;5082245;28;19947;-76
2022/04/17 14:05:27;;;;;;;;;;;33.50;34.00;;;;;;5077246;28;20364;-77
2022/04/17 14:07:54;;;;;;;;;;;34.40;33.50;;;;;;5087661;28;20025;-76
2022/04/17 14:10:22;;;;;;;;;;;34.20;33.30;;;;;;5075760;28;20016;-75
2022/04/17 14:12:48;;;;;;;;;;;33.50;33.20;;;;;;5077417;28;19999;-76
2022/04/17 14:15:15;;;;;;;;;;;33.20;33.30;;;;;;5088652;28;20019;-76
2022/04/17 14:17:41;;;;;;;;;;;33.30;32.80;;;;;;5078433;28;19951;-76
2022/04/17 14:20:10;;;;;;;;;;;33.00;33.60;;;;;;5088456;28;19970;-75
2022/04/17 14:22:36;;;;;;;;;;;33.80;33.10;;;;;;5087989;28;19950;-75
2022/04/17 14:25:03;;;;;;;;;;;34.40;32.80;;;;;;5072604;28;20036;-75
2022/04/17 14:27:29;;;;;;;;;;;35.40;32.50;;;;;;5069131;28;20388;-75
2022/04/17 14:29:56;;;;;;;;;;;35.90;32.10;;;;;;5071718;28;20031;-76
2022/04/17 14:32:22;;;;;;;;;;;34.40;32.30;;;;;;5082010;28;19945;-75
2022/04/17 14:34:49;;;;;;;;;;;33.50;32.30;;;;;;5077721;28;20046;-76
2022/04/17 14:37:17;;;;;;;;;;;32.80;32.30;;;;;;5072716;28;20034;-77